createdAt,value
2018-03-03T00:01:05.466Z,27.90
2018-03-03T00:03:36.334Z,26.40
2018-03-03T00:06:07.198Z,28.17
2018-03-03T00:08:38.068Z,31.07
2018-03-03T00:11:10.058Z,31.10
2018-03-03T00:13:40.930Z,31.05
2018-03-03T00:16:11.842Z,30.30
2018-03-03T00:18:42.713Z,27.10
2018-03-03T00:21:13.622Z,30.27
2018-03-03T00:23:44.504Z,30.50
2018-03-03T00:26:15.395Z,32.37
2018-03-03T00:28:46.187Z,30.70
2018-03-03T00:31:17.096Z,33.60
2018-03-03T00:33:47.946Z,30.43
2018-03-03T00:36:18.854Z,32.63
2018-03-03T00:38:49.708Z,31.77
2018-03-03T00:41:20.551Z,32.10
2018-03-03T00:43:51.380Z,35.17
2018-03-03T00:46:22.224Z,33.30
2018-03-03T00:48:53.055Z,33.47
2018-03-03T00:51:23.954Z,32.40
2018-03-03T00:53:54.793Z,32.77
2018-03-03T00:56:27.679Z,29.47
2018-03-03T00:58:58.553Z,34.22
2018-03-03T01:01:29.433Z,31.00
2018-03-03T01:04:00.271Z,34.00
2018-03-03T01:06:31.117Z,32.60
2018-03-03T01:09:02.010Z,32.67
2018-03-03T01:11:32.898Z,32.23
2018-03-03T01:14:03.763Z,31.50
2018-03-03T01:16:34.618Z,31.60
2018-03-03T01:19:05.436Z,32.40
2018-03-03T01:21:36.267Z,32.20
2018-03-03T01:24:07.086Z,30.80
2018-03-03T01:26:37.938Z,33.63
2018-03-03T01:29:08.762Z,33.07
2018-03-03T01:31:41.684Z,34.50
2018-03-03T01:34:12.515Z,32.30
2018-03-03T01:36:43.367Z,31.10
2018-03-03T01:39:14.246Z,31.33
2018-03-03T01:41:45.130Z,32.67
2018-03-03T01:44:16.051Z,34.43
2018-03-03T01:46:46.966Z,33.60
2018-03-03T01:49:17.829Z,31.80
2018-03-03T01:51:48.670Z,33.47
2018-03-03T01:54:19.521Z,31.77
2018-03-03T01:56:50.358Z,33.17
2018-03-03T01:59:21.238Z,30.67
2018-03-03T02:01:52.111Z,32.80
2018-03-03T02:04:22.965Z,32.33
2018-03-03T02:06:53.846Z,35.10
2018-03-03T02:09:24.716Z,32.67
2018-03-03T02:11:55.561Z,33.47
2018-03-03T02:14:26.400Z,31.10
2018-03-03T02:16:57.468Z,33.40
2018-03-03T02:19:28.290Z,33.58
2018-03-03T02:21:59.178Z,32.20
2018-03-03T02:24:30.009Z,33.33
2018-03-03T02:27:00.886Z,34.17
2018-03-03T02:29:31.737Z,32.00
2018-03-03T02:32:02.586Z,33.40
2018-03-03T02:34:33.412Z,34.93
2018-03-03T02:37:04.336Z,34.30
2018-03-03T02:39:35.198Z,33.57
2018-03-03T02:42:06.066Z,32.30
2018-03-03T02:44:36.929Z,34.20
2018-03-03T02:47:07.824Z,35.90
2018-03-03T02:49:38.703Z,33.63
2018-03-03T02:52:09.549Z,34.90
2018-03-03T02:54:40.399Z,35.13
2018-03-03T02:57:11.286Z,33.57
2018-03-03T02:59:42.126Z,35.47
2018-03-03T03:02:12.988Z,37.00
2018-03-03T03:04:43.847Z,33.87
2018-03-03T03:07:14.667Z,34.23
2018-03-03T03:09:45.534Z,36.43
2018-03-03T03:12:16.443Z,34.30
2018-03-03T03:14:47.304Z,36.70
2018-03-03T03:17:18.149Z,38.03
2018-03-03T03:19:49.022Z,37.20
2018-03-03T03:22:19.904Z,37.07
2018-03-03T03:24:50.741Z,34.93
2018-03-03T03:27:21.607Z,38.10
2018-03-03T03:29:52.464Z,34.20
2018-03-03T03:32:23.319Z,37.23
2018-03-03T03:34:54.168Z,38.17
2018-03-03T03:37:33.179Z,39.20
2018-03-03T03:40:04.147Z,39.50
2018-03-03T03:42:34.997Z,38.35
2018-03-03T03:45:05.877Z,37.70
2018-03-03T03:47:36.768Z,35.30
2018-03-03T03:50:07.592Z,37.50
2018-03-03T03:52:38.423Z,40.73
2018-03-03T03:55:09.432Z,38.27
2018-03-03T03:57:40.300Z,39.17
2018-03-03T04:00:11.133Z,40.90
2018-03-03T04:02:42.036Z,36.57
2018-03-03T04:05:12.886Z,39.20
2018-03-03T04:07:43.744Z,40.37
2018-03-03T04:10:14.574Z,40.83
2018-03-03T04:12:45.464Z,42.77
2018-03-03T04:15:16.354Z,41.70
2018-03-03T04:17:47.227Z,42.37
2018-03-03T04:20:18.066Z,41.83
2018-03-03T04:22:48.973Z,39.23
2018-03-03T04:25:19.794Z,40.43
2018-03-03T04:27:52.700Z,41.60
2018-03-03T04:30:23.573Z,39.10
2018-03-03T04:32:54.425Z,40.97
2018-03-03T04:35:25.308Z,43.13
2018-03-03T04:37:56.139Z,42.80
2018-03-03T04:40:26.973Z,41.17
2018-03-03T04:42:57.830Z,41.17
2018-03-03T04:45:28.619Z,46.37
2018-03-03T04:47:59.488Z,45.17
2018-03-03T04:50:34.274Z,38.47
2018-03-03T04:53:05.150Z,39.40
2018-03-03T04:55:35.980Z,41.17
2018-03-03T04:58:06.817Z,42.23
2018-03-03T05:00:41.572Z,41.07
2018-03-03T05:06:25.002Z,39.97
2018-03-03T05:08:55.865Z,44.40
2018-03-03T05:11:26.704Z,41.40
2018-03-03T05:17:14.009Z,43.30
2018-03-03T05:19:50.968Z,37.80
2018-03-03T05:22:27.811Z,41.85
2018-03-03T05:28:24.937Z,44.38
2018-03-03T05:31:01.930Z,41.95
2018-03-03T05:33:38.763Z,41.42
2018-03-03T05:36:20.765Z,39.50
2018-03-03T05:38:57.721Z,40.97
2018-03-03T05:41:34.522Z,43.33
2018-03-03T05:44:11.543Z,41.10
2018-03-03T05:49:51.033Z,41.80
2018-03-03T05:55:48.311Z,43.53
2018-03-03T06:01:28.900Z,40.38
2018-03-03T06:04:04.722Z,43.22
2018-03-03T06:09:42.939Z,39.88
2018-03-03T06:12:13.801Z,44.40
2018-03-03T06:14:44.693Z,41.43
2018-03-03T06:17:15.543Z,39.97
2018-03-03T06:19:46.397Z,41.20
2018-03-03T06:22:17.250Z,42.20
2018-03-03T06:24:48.082Z,43.30
2018-03-03T06:27:18.943Z,41.87
2018-03-03T06:29:49.753Z,40.90
2018-03-03T06:32:20.585Z,45.40
2018-03-03T06:34:51.389Z,44.20
2018-03-03T06:37:22.220Z,41.20
2018-03-03T06:39:53.088Z,43.30
2018-03-03T06:42:23.909Z,43.27
2018-03-03T06:44:54.751Z,38.80
2018-03-03T06:47:25.595Z,42.97
2018-03-03T06:49:56.417Z,42.40
2018-03-03T06:52:27.247Z,41.77
2018-03-03T06:54:58.119Z,40.67
2018-03-03T06:57:28.946Z,38.43
2018-03-03T06:59:59.785Z,41.03
2018-03-03T07:02:30.587Z,41.60
2018-03-03T07:05:01.405Z,39.37
2018-03-03T07:07:32.249Z,39.00
2018-03-03T07:10:03.105Z,40.90
2018-03-03T07:12:33.918Z,43.37
2018-03-03T07:15:11.799Z,35.33
2018-03-03T07:17:42.616Z,39.33
2018-03-03T07:20:13.445Z,42.10
2018-03-03T07:22:44.266Z,37.13
2018-03-03T07:25:15.142Z,40.50
2018-03-03T07:27:45.938Z,38.60
2018-03-03T07:30:16.817Z,41.27
2018-03-03T07:32:47.655Z,40.57
2018-03-03T07:35:18.490Z,38.37
2018-03-03T07:37:49.300Z,40.03
2018-03-03T07:40:20.205Z,39.00
2018-03-03T07:42:51.037Z,38.17
2018-03-03T07:45:21.993Z,38.57
2018-03-03T07:47:52.877Z,40.28
2018-03-03T07:50:23.739Z,39.07
2018-03-03T07:52:54.578Z,35.90
2018-03-03T07:55:25.420Z,40.30
2018-03-03T07:58:03.007Z,37.70
2018-03-03T08:00:33.834Z,38.17
2018-03-03T08:03:04.698Z,40.80
2018-03-03T08:05:35.535Z,40.07
2018-03-03T08:08:06.405Z,41.60
2018-03-03T08:10:37.278Z,40.53
2018-03-03T08:13:08.172Z,38.20
2018-03-03T08:15:39.012Z,38.90
2018-03-03T08:18:09.877Z,37.87
2018-03-03T08:20:41.735Z,39.03
2018-03-03T08:23:12.632Z,37.90
2018-03-03T08:25:44.523Z,38.90
2018-03-03T08:28:15.342Z,39.60
2018-03-03T08:30:46.161Z,36.07
2018-03-03T08:33:23.976Z,38.40
2018-03-03T08:35:54.840Z,36.97
2018-03-03T08:38:25.774Z,40.10
2018-03-03T08:40:56.578Z,40.20
2018-03-03T08:43:27.456Z,39.13
2018-03-03T08:45:58.294Z,37.97
2018-03-03T08:48:29.128Z,37.00
2018-03-03T08:51:02.056Z,38.07
2018-03-03T08:53:32.918Z,37.53
2018-03-03T08:56:03.722Z,36.23
2018-03-03T08:58:34.598Z,36.40
2018-03-03T09:01:05.464Z,38.60
2018-03-03T09:03:36.303Z,39.80
2018-03-03T09:06:07.133Z,37.73
2018-03-03T09:08:37.925Z,39.80
2018-03-03T09:11:08.751Z,38.20
2018-03-03T09:13:39.618Z,38.03
2018-03-03T09:16:10.449Z,38.07
2018-03-03T09:18:41.357Z,39.17
2018-03-03T09:21:12.220Z,40.53
2018-03-03T09:23:43.039Z,40.10
2018-03-03T09:26:13.883Z,37.70
2018-03-03T09:28:44.717Z,38.10
2018-03-03T09:31:15.532Z,39.37
2018-03-03T09:33:46.390Z,38.47
2018-03-03T09:36:17.240Z,39.00
2018-03-03T09:38:48.084Z,36.63
2018-03-03T09:41:19.027Z,38.97
2018-03-03T09:43:49.886Z,36.87
2018-03-03T09:46:20.716Z,35.97
2018-03-03T09:48:52.644Z,39.10
2018-03-03T09:51:23.488Z,37.00
2018-03-03T09:53:54.286Z,37.77
2018-03-03T09:56:25.105Z,39.47
2018-03-03T09:58:55.800Z,37.80
2018-03-03T10:01:26.631Z,40.60
2018-03-03T10:03:57.426Z,40.30
2018-03-03T10:06:29.310Z,37.10
2018-03-03T10:09:00.190Z,38.67
2018-03-03T10:11:31.026Z,39.60
2018-03-03T10:14:01.873Z,39.40
2018-03-03T10:16:32.709Z,38.17
2018-03-03T10:19:03.746Z,35.60
2018-03-03T10:21:34.684Z,38.78
2018-03-03T10:24:05.633Z,37.70
2018-03-03T10:26:36.568Z,42.33
2018-03-03T10:29:07.381Z,40.63
2018-03-03T10:31:38.185Z,39.53
2018-03-03T10:34:09.098Z,38.93
2018-03-03T10:36:39.936Z,40.10
2018-03-03T10:39:11.025Z,39.90
2018-03-03T10:41:41.841Z,36.85
2018-03-03T10:44:12.661Z,40.30
2018-03-03T10:46:43.663Z,39.60
2018-03-03T10:49:14.524Z,41.78
2018-03-03T10:51:45.368Z,38.37
2018-03-03T10:54:16.230Z,38.03
2018-03-03T10:56:47.044Z,38.87
2018-03-03T10:59:17.884Z,41.77
2018-03-03T11:01:48.701Z,38.63
2018-03-03T11:04:19.520Z,44.47
2018-03-03T11:06:50.305Z,39.20
2018-03-03T11:09:21.094Z,38.83
2018-03-03T11:11:51.885Z,38.67
2018-03-03T11:14:22.756Z,36.87
2018-03-03T11:16:53.592Z,38.20
2018-03-03T11:19:24.393Z,39.07
2018-03-03T11:21:55.226Z,40.20
2018-03-03T11:24:26.069Z,40.57
2018-03-03T11:26:56.925Z,36.83
2018-03-03T11:29:27.772Z,37.10
2018-03-03T11:31:58.606Z,35.50
2018-03-03T11:34:29.404Z,38.77
2018-03-03T11:37:00.269Z,38.67
2018-03-03T11:39:31.097Z,34.87
2018-03-03T11:42:01.988Z,37.80
2018-03-03T11:44:32.831Z,36.80
2018-03-03T11:47:03.658Z,36.40
2018-03-03T11:49:34.471Z,35.50
2018-03-03T11:52:05.316Z,35.60
2018-03-03T11:54:36.120Z,34.53
2018-03-03T11:57:06.970Z,34.87
2018-03-03T11:59:37.809Z,38.80
2018-03-03T12:02:08.652Z,35.10
2018-03-03T12:04:39.462Z,38.53
2018-03-03T12:07:10.338Z,38.77
2018-03-03T12:09:41.185Z,40.57
2018-03-03T12:12:12.083Z,38.17
2018-03-03T12:14:42.973Z,38.17
2018-03-03T12:17:13.857Z,37.07
2018-03-03T12:19:44.747Z,36.80
2018-03-03T12:22:15.675Z,35.30
2018-03-03T12:24:46.487Z,37.73
2018-03-03T12:27:17.357Z,35.37
2018-03-03T12:29:48.219Z,36.03
2018-03-03T12:32:19.314Z,36.30
2018-03-03T12:34:51.120Z,38.17
2018-03-03T12:37:22.231Z,36.47
2018-03-03T12:39:53.043Z,38.28
2018-03-03T12:42:24.036Z,37.10
2018-03-03T12:44:54.877Z,37.07
2018-03-03T12:47:25.804Z,38.33
2018-03-03T12:49:56.766Z,37.17
2018-03-03T12:52:27.613Z,39.00
2018-03-03T12:54:58.509Z,39.77
2018-03-03T12:57:29.367Z,40.13
2018-03-03T13:00:00.277Z,38.13
2018-03-03T13:02:31.171Z,38.57
2018-03-03T13:05:02.018Z,40.63
2018-03-03T13:07:32.863Z,38.87
2018-03-03T13:10:03.729Z,39.70
2018-03-03T13:12:34.554Z,39.00
2018-03-03T13:15:05.377Z,39.40
2018-03-03T13:17:36.270Z,35.87
2018-03-03T13:20:07.077Z,38.90
2018-03-03T13:22:37.898Z,36.93
2018-03-03T13:25:08.708Z,37.90
2018-03-03T13:27:39.545Z,34.30
2018-03-03T13:30:10.357Z,34.73
2018-03-03T13:32:41.189Z,35.30
2018-03-03T13:35:11.990Z,34.90
2018-03-03T13:37:42.861Z,33.90
2018-03-03T13:40:13.718Z,32.17
2018-03-03T13:42:44.579Z,33.70
2018-03-03T13:45:15.413Z,34.50
2018-03-03T13:47:46.228Z,34.80
2018-03-03T13:50:17.086Z,34.13
2018-03-03T13:52:48.025Z,31.53
2018-03-03T13:55:18.886Z,32.97
2018-03-03T13:57:49.737Z,31.50
2018-03-03T14:00:20.632Z,28.93
2018-03-03T14:02:51.492Z,29.67
2018-03-03T14:05:22.411Z,31.43
2018-03-03T14:07:53.274Z,31.10
2018-03-03T14:10:24.156Z,31.80
2018-03-03T14:12:55.126Z,30.03
2018-03-03T14:15:25.974Z,28.30
2018-03-03T14:17:56.889Z,30.93
2018-03-03T14:20:27.757Z,29.23
2018-03-03T14:22:58.582Z,30.23
2018-03-03T14:25:29.430Z,28.17
2018-03-03T14:28:00.247Z,26.57
2018-03-03T14:30:31.125Z,25.60
2018-03-03T14:33:01.935Z,25.30
2018-03-03T14:35:32.856Z,25.10
2018-03-03T14:38:03.763Z,26.17
2018-03-03T14:40:34.589Z,24.77
2018-03-03T14:43:05.491Z,27.97
2018-03-03T14:45:36.444Z,26.13
2018-03-03T14:48:07.243Z,27.90
2018-03-03T14:50:38.087Z,27.10
2018-03-03T14:53:08.923Z,28.30
2018-03-03T14:55:39.750Z,28.30
2018-03-03T14:58:10.589Z,30.07
2018-03-03T15:00:41.425Z,28.80
2018-03-03T15:03:12.275Z,29.40
2018-03-03T15:05:43.094Z,29.27
2018-03-03T15:08:13.901Z,28.70
2018-03-03T15:10:44.723Z,29.90
2018-03-03T15:13:15.512Z,31.13
2018-03-03T15:15:46.361Z,31.47
2018-03-03T15:18:17.210Z,32.80
2018-03-03T15:20:48.117Z,29.77
2018-03-03T15:23:18.966Z,31.33
2018-03-03T15:25:49.827Z,30.60
2018-03-03T15:28:20.634Z,31.50
2018-03-03T15:30:51.474Z,31.67
2018-03-03T15:33:22.270Z,30.83
2018-03-03T15:35:53.098Z,29.23
2018-03-03T15:38:23.885Z,30.57
2018-03-03T15:40:54.719Z,30.57
2018-03-03T15:43:25.527Z,30.97
2018-03-03T15:45:56.465Z,29.60
2018-03-03T15:48:27.345Z,30.07
2018-03-03T15:50:58.185Z,30.47
2018-03-03T15:53:28.981Z,31.73
2018-03-03T15:55:59.800Z,31.67
2018-03-03T15:58:30.615Z,29.57
2018-03-03T16:01:01.447Z,32.77
2018-03-03T16:03:32.252Z,32.53
2018-03-03T16:06:03.100Z,35.40
2018-03-03T16:08:33.916Z,30.70
2018-03-03T16:11:04.752Z,30.70
2018-03-03T16:13:35.530Z,31.40
2018-03-03T16:16:06.403Z,31.60
2018-03-03T16:18:37.234Z,30.30
2018-03-03T16:21:09.149Z,32.47
2018-03-03T16:23:40.010Z,32.50
2018-03-03T16:26:10.887Z,29.40
2018-03-03T16:28:41.776Z,30.87
2018-03-03T16:31:13.694Z,31.77
2018-03-03T16:33:44.513Z,30.15
2018-03-03T16:36:15.356Z,32.03
2018-03-03T16:38:46.179Z,32.60
2018-03-03T16:41:17.034Z,31.00
2018-03-03T16:43:47.871Z,30.80
2018-03-03T16:46:18.706Z,28.77
2018-03-03T16:48:49.549Z,31.50
2018-03-03T16:51:20.375Z,31.30
2018-03-03T16:53:51.174Z,31.60
2018-03-03T16:56:22.043Z,30.53
2018-03-03T16:58:52.856Z,31.03
2018-03-03T17:01:23.717Z,29.80
2018-03-03T17:03:54.556Z,29.90
2018-03-03T17:06:25.450Z,31.47
2018-03-03T17:08:56.284Z,30.33
2018-03-03T17:11:27.113Z,31.30
2018-03-03T17:13:59.026Z,31.10
2018-03-03T17:16:29.862Z,31.87
2018-03-03T17:19:00.799Z,31.43
2018-03-03T17:21:31.638Z,30.43
2018-03-03T17:24:02.491Z,33.07
2018-03-03T17:26:33.326Z,29.83
2018-03-03T17:29:04.118Z,29.40
2018-03-03T17:31:34.991Z,30.50
2018-03-03T17:34:05.774Z,29.90
2018-03-03T17:36:36.565Z,29.30
2018-03-03T17:39:07.491Z,30.67
2018-03-03T17:41:38.327Z,30.10
2018-03-03T17:44:09.141Z,30.57
2018-03-03T17:46:39.998Z,29.40
2018-03-03T17:49:10.797Z,29.20
2018-03-03T17:51:42.111Z,29.63
2018-03-03T17:54:12.967Z,29.45
2018-03-03T17:56:43.784Z,28.93
2018-03-03T17:59:16.647Z,30.00
2018-03-03T18:01:47.471Z,30.60
2018-03-03T18:04:18.295Z,33.90
2018-03-03T18:06:49.101Z,31.70
2018-03-03T18:09:19.892Z,32.27
2018-03-03T18:11:59.711Z,33.33
2018-03-03T18:14:30.572Z,30.85
2018-03-03T18:17:01.406Z,32.17
2018-03-03T18:19:33.123Z,32.07
2018-03-03T18:22:03.976Z,32.70
2018-03-03T18:24:34.894Z,31.07
2018-03-03T18:27:05.800Z,30.70
2018-03-03T18:29:36.721Z,32.73
2018-03-03T18:32:07.558Z,29.33
2018-03-03T18:34:38.483Z,30.77
2018-03-03T18:37:09.289Z,30.70
2018-03-03T18:39:40.138Z,33.20
2018-03-03T18:42:10.964Z,32.23
2018-03-03T18:44:42.257Z,31.23
2018-03-03T18:47:13.163Z,30.45
2018-03-03T18:49:44.021Z,31.20
2018-03-03T18:52:14.902Z,29.50
2018-03-03T18:54:45.797Z,31.87
2018-03-03T18:57:16.728Z,29.87
2018-03-03T18:59:47.634Z,31.40
2018-03-03T19:02:18.642Z,33.10
2018-03-03T19:04:49.479Z,30.60
2018-03-03T19:07:20.326Z,29.87
2018-03-03T19:09:51.202Z,32.60
2018-03-03T19:12:22.038Z,30.50
2018-03-03T19:14:52.899Z,31.33
2018-03-03T19:17:23.735Z,29.67
2018-03-03T19:19:54.615Z,32.00
2018-03-03T19:22:25.502Z,32.37
2018-03-03T19:24:56.356Z,31.60
2018-03-03T19:27:27.267Z,32.67
2018-03-03T19:29:58.096Z,32.07
2018-03-03T19:32:28.909Z,32.10
2018-03-03T19:34:59.751Z,32.00
2018-03-03T19:37:30.626Z,31.90
2018-03-03T19:40:01.475Z,31.97
2018-03-03T19:42:32.375Z,32.47
2018-03-03T19:45:03.323Z,29.10
2018-03-03T19:47:34.262Z,33.50
2018-03-03T19:50:05.108Z,34.63
2018-03-03T19:52:35.954Z,33.30
2018-03-03T19:55:06.802Z,30.57
2018-03-03T19:57:37.620Z,34.53
2018-03-03T20:00:08.449Z,34.97
2018-03-03T20:02:39.300Z,31.17
2018-03-03T20:05:10.139Z,28.23
2018-03-03T20:07:41.047Z,31.07
2018-03-03T20:10:11.914Z,32.83
2018-03-03T20:12:42.820Z,31.90
2018-03-03T20:15:13.689Z,32.13
2018-03-03T20:17:44.604Z,31.20
2018-03-03T20:20:15.470Z,29.57
2018-03-03T20:22:46.380Z,31.60
2018-03-03T20:25:17.177Z,32.40
2018-03-03T20:27:48.059Z,34.80
2018-03-03T20:30:18.942Z,30.40
2018-03-03T20:32:49.784Z,30.97
2018-03-03T20:35:20.609Z,33.17
2018-03-03T20:37:51.487Z,31.10
2018-03-03T20:40:22.395Z,33.03
2018-03-03T20:42:53.265Z,34.63
2018-03-03T20:45:24.142Z,31.20
2018-03-03T20:47:58.488Z,33.83
2018-03-03T20:50:29.412Z,32.78
2018-03-03T20:53:00.376Z,34.67
2018-03-03T20:55:31.909Z,34.57
2018-03-03T20:58:02.805Z,33.55
2018-03-03T21:00:34.542Z,33.43
2018-03-03T21:03:05.443Z,33.40
2018-03-03T21:05:36.333Z,34.03
2018-03-03T21:08:07.215Z,35.60
2018-03-03T21:10:38.126Z,37.47
2018-03-03T21:13:09.013Z,32.80
2018-03-03T21:15:39.806Z,35.37
2018-03-03T21:18:10.713Z,35.60
2018-03-03T21:20:41.611Z,35.67
2018-03-03T21:23:12.509Z,33.40
2018-03-03T21:25:43.374Z,33.83
2018-03-03T21:28:14.525Z,35.83
2018-03-03T21:30:45.442Z,33.25
2018-03-03T21:33:16.275Z,35.50
2018-03-03T21:35:47.138Z,33.10
2018-03-03T21:38:18.042Z,33.60
2018-03-03T21:40:48.909Z,32.10
2018-03-03T21:43:19.772Z,31.60
2018-03-03T21:45:50.653Z,34.30
2018-03-03T21:48:21.499Z,34.77
2018-03-03T21:50:52.391Z,33.07
2018-03-03T21:53:23.379Z,34.00
2018-03-03T21:55:54.308Z,32.38
2018-03-03T21:58:26.286Z,32.93
2018-03-03T22:00:58.999Z,32.60
2018-03-03T22:03:29.876Z,31.37
2018-03-03T22:06:00.968Z,31.40
2018-03-03T22:08:31.771Z,33.00
2018-03-03T22:11:02.568Z,32.03
2018-03-03T22:13:33.374Z,34.57
2018-03-03T22:16:04.196Z,33.07
2018-03-03T22:18:35.326Z,31.87
2018-03-03T22:21:06.161Z,33.70
2018-03-03T22:23:37.026Z,34.07
2018-03-03T22:26:07.894Z,34.83
2018-03-03T22:28:38.741Z,35.13
2018-03-03T22:31:09.706Z,35.03
2018-03-03T22:33:40.625Z,33.90
2018-03-03T22:36:11.565Z,35.60
2018-03-03T22:38:42.428Z,37.13
2018-03-03T22:41:13.370Z,35.60
2018-03-03T22:43:45.429Z,39.13
2018-03-03T22:46:16.284Z,37.92
2018-03-03T22:48:47.174Z,34.50
2018-03-03T22:51:18.108Z,35.97
2018-03-03T22:53:49.323Z,39.20
2018-03-03T22:56:20.126Z,39.55
2018-03-03T22:58:51.061Z,40.73
2018-03-03T23:01:21.901Z,37.10
2018-03-03T23:03:54.333Z,36.73
2018-03-03T23:06:25.302Z,39.47
2018-03-03T23:08:56.224Z,40.07
2018-03-03T23:11:27.362Z,42.47
2018-03-03T23:13:58.261Z,43.30
2018-03-03T23:16:29.167Z,44.60
2018-03-03T23:19:00.071Z,43.47
2018-03-03T23:21:31.876Z,41.27
2018-03-03T23:24:02.823Z,55.63
2018-03-03T23:26:35.305Z,42.90
2018-03-03T23:29:06.253Z,46.35
2018-03-03T23:31:37.363Z,44.27
2018-03-03T23:34:09.130Z,44.90
2018-03-03T23:36:40.838Z,44.60
2018-03-03T23:39:11.768Z,45.28
2018-03-03T23:41:44.183Z,45.87
2018-03-03T23:44:16.110Z,44.30
2018-03-03T23:46:47.016Z,43.15
2018-03-03T23:49:17.901Z,45.70
2018-03-03T23:51:52.451Z,44.20
2018-03-03T23:54:24.442Z,44.55
2018-03-03T23:56:55.570Z,44.50
2018-03-03T23:59:27.553Z,45.92
